ISL weather

Las Islas Airport
Mexicali, Baja California, Mexico

Public forecast

Using degrees Celsius for public forecast. Weather courtesy of forecast.io.

METAR (pilot weather report)

Report is more than 2 hours old.

Closest report is General Rodolfo Sánchez Taboada International Airport, 4.2 nm (7.8 km) NNE. Retrieved 2019/08/25 06:46 UTC (3 hours ago):

MMML 250646Z 14008KT 10SM SKC 28/24 A2988

TAF (pilot weather forecast)

Closest forecast is General Rodolfo Sánchez Taboada International Airport, 4.2 nm (7.8 km) NNE. Retrieved 2019/08/25 06:51 UTC (3 hours ago):

TAF MMML 250545Z 2506/2606 16005KT P6SM SCT250 FM251700 12012KT P6SM SCT250 FM260200 16005KT P6SM SCT250